Time;durP1;ratioP1;P1;durP2;ratioP2;P2;SDS_P1;SDS_P2;PMS_P1;PMS_P2;Temp;Humidity;BMP_temperature;BMP_pressure;BME280_temperature;BME280_humidity;BME280_pressure;Samples;Min_cycle;Max_cycle;Signal;HPM_P1;HPM_P2
2022/08/18 00:00:59;;;;;;;8.65;7.00;;;;;;;16.54;71.33;98131.00;4183326;28;20068;-72
2022/08/18 00:03:04;;;;;;;12.57;7.70;;;;;;;16.51;71.68;98129.06;4182042;28;20043;-72
2022/08/18 00:05:05;;;;;;;12.30;7.32;;;;;;;16.49;71.52;98127.94;4182984;28;20045;-72
2022/08/18 00:07:09;;;;;;;10.10;6.70;;;;;;;16.49;71.77;98130.72;4184032;28;20033;-71
2022/08/18 00:09:10;;;;;;;10.15;7.35;;;;;;;16.55;71.18;98134.63;4185385;28;20036;-71
2022/08/18 00:11:11;;;;;;;12.52;7.57;;;;;;;16.62;71.06;98137.25;4185362;28;20036;-71
2022/08/18 00:13:11;;;;;;;8.88;7.15;;;;;;;16.58;71.55;98133.75;4186886;28;20097;-71
2022/08/18 00:15:15;;;;;;;8.63;7.28;;;;;;;16.56;71.57;98134.19;4185869;28;20045;-71
2022/08/18 00:17:16;;;;;;;8.32;7.25;;;;;;;16.57;71.29;98129.38;4184925;28;20041;-71
2022/08/18 00:19:16;;;;;;;13.02;8.25;;;;;;;16.59;71.57;98124.16;4186969;28;20033;-71
2022/08/18 00:21:17;;;;;;;8.73;7.68;;;;;;;16.63;71.04;98133.25;4188209;28;20306;-72
2022/08/18 00:23:18;;;;;;;10.05;7.20;;;;;;;16.58;71.43;98125.38;4180450;28;20037;-72
2022/08/18 00:25:19;;;;;;;9.60;7.20;;;;;;;16.54;72.35;98122.63;4186502;28;20091;-71
2022/08/18 00:27:24;;;;;;;11.43;7.47;;;;;;;16.46;73.11;98128.78;4187448;28;20037;-71
2022/08/18 00:29:24;;;;;;;9.98;7.00;;;;;;;16.39;73.00;98131.72;4185468;28;20037;-71
2022/08/18 00:31:25;;;;;;;10.07;6.65;;;;;;;16.32;72.45;98137.41;4187298;28;20066;-71
2022/08/18 00:33:26;;;;;;;9.30;7.28;;;;;;;16.39;71.05;98134.50;4188097;28;20143;-71
2022/08/18 00:35:33;;;;;;;8.02;7.22;;;;;;;16.37;71.99;98137.69;4185957;28;20037;-71
2022/08/18 00:37:34;;;;;;;8.32;6.97;;;;;;;16.44;71.63;98136.78;4188703;28;20692;-72
2022/08/18 00:39:35;;;;;;;7.72;6.93;;;;;;;16.46;71.31;98145.53;4186314;28;20048;-72
2022/08/18 00:41:35;;;;;;;7.57;6.68;;;;;;;16.48;70.20;98140.31;4188600;28;20082;-72
2022/08/18 00:43:43;;;;;;;7.60;6.25;;;;;;;16.45;70.62;98149.53;4186598;28;20067;-72
2022/08/18 00:45:45;;;;;;;8.23;7.07;;;;;;;16.37;70.70;98140.50;4187540;28;20057;-72
2022/08/18 00:47:45;;;;;;;8.45;6.75;;;;;;;16.33;70.93;98142.56;4187446;28;20060;-72
2022/08/18 00:49:50;;;;;;;10.13;6.75;;;;;;;16.30;71.10;98135.03;4186713;28;20516;-72
2022/08/18 00:51:51;;;;;;;9.32;7.07;;;;;;;16.29;71.10;98137.03;4187545;28;20051;-72
2022/08/18 00:54:26;;;;;;;9.45;6.22;;;;;;;16.37;70.46;98140.50;4187558;28;20435;-72
2022/08/18 00:56:43;;;;;;;9.65;6.57;;;;;;;16.40;70.23;98131.28;4175582;28;20048;-72
2022/08/18 00:58:51;;;;;;;9.32;7.05;;;;;;;16.36;70.93;98138.13;4186670;28;20032;-72
2022/08/18 01:00:51;;;;;;;7.88;6.50;;;;;;;16.37;70.62;98137.69;4185613;28;20056;-72
2022/08/18 01:02:57;;;;;;;8.98;6.47;;;;;;;16.43;69.91;98140.81;4185668;28;20709;-71
2022/08/18 01:05:07;;;;;;;10.88;6.65;;;;;;;16.49;69.99;98145.47;4187340;28;20051;-71
2022/08/18 01:07:19;;;;;;;8.93;6.63;;;;;;;16.51;69.68;98145.03;4186434;28;20465;-71
2022/08/18 01:09:19;;;;;;;9.82;6.68;;;;;;;16.45;70.64;98155.91;4185816;28;20040;-71
2022/08/18 01:11:20;;;;;;;10.50;6.30;;;;;;;16.51;69.66;98151.41;4187526;28;20036;-71
2022/08/18 01:13:27;;;;;;;9.63;6.85;;;;;;;16.60;69.43;98156.44;4188273;28;20725;-71
2022/08/18 01:15:28;;;;;;;13.75;7.28;;;;;;;16.57;69.56;98144.13;4187549;28;20357;-71
2022/08/18 01:22:17;;;;;;;8.10;6.78;;;;;;;16.26;70.70;98149.06;4186432;28;20048;-72
2022/08/18 01:26:51;;;;;;;7.35;6.65;;;;;;;16.16;71.07;98157.59;4187079;28;20431;-72
2022/08/18 01:28:52;;;;;;;7.82;6.10;;;;;;;16.15;71.46;98156.03;4186329;28;20052;-72
2022/08/18 01:30:56;;;;;;;9.75;6.95;;;;;;;16.12;71.35;98156.84;4186725;28;20215;-71
2022/08/18 01:32:57;;;;;;;11.65;7.10;;;;;;;16.08;72.91;98150.56;4187955;28;20080;-71
2022/08/18 01:34:58;;;;;;;10.88;7.15;;;;;;;16.03;73.44;98149.03;4186734;28;20055;-71
2022/08/18 01:36:59;;;;;;;8.00;7.00;;;;;;;16.00;74.15;98147.88;4188274;28;20063;-71
2022/08/18 01:38:59;;;;;;;9.13;7.00;;;;;;;15.98;73.83;98152.31;4186195;28;20040;-71
2022/08/18 01:40:59;;;;;;;8.48;6.82;;;;;;;15.95;74.01;98148.34;4186545;28;20044;-71
2022/08/18 01:43:02;;;;;;;15.43;7.75;;;;;;;15.93;74.27;98152.78;4187898;28;20536;-71
2022/08/18 01:45:06;;;;;;;;;;;;;;;15.94;73.59;98155.13;4186813;28;20388;-71
2022/08/18 01:47:09;;;;;;;8.52;6.60;;;;;;;15.88;73.55;98153.25;4186957;28;19952;-71
2022/08/18 01:49:10;;;;;;;10.35;7.20;;;;;;;15.78;73.02;98151.41;4186127;28;20056;-71
2022/08/18 01:51:12;;;;;;;12.25;7.68;;;;;;;15.62;73.86;98158.38;4187019;28;20118;-71
2022/08/18 01:53:12;;;;;;;11.00;8.00;;;;;;;15.59;74.32;98159.19;4186543;28;20068;-71
2022/08/18 01:55:12;;;;;;;8.93;7.38;;;;;;;15.61;73.95;98165.19;4187112;28;20607;-71
2022/08/18 01:57:14;;;;;;;11.20;7.18;;;;;;;15.48;74.13;98155.78;4186924;28;20464;-71
2022/08/18 01:59:14;;;;;;;11.18;7.05;;;;;;;15.52;74.05;98156.50;4185140;28;20525;-71
2022/08/18 02:01:15;;;;;;;10.77;8.05;;;;;;;15.49;74.30;98149.00;4186651;28;20120;-71
2022/08/18 02:03:15;;;;;;;10.27;7.13;;;;;;;15.51;74.36;98151.34;4184959;28;20055;-71
2022/08/18 02:05:23;;;;;;;9.50;7.15;;;;;;;15.52;74.11;98150.13;4186993;28;20155;-71
2022/08/18 02:07:23;;;;;;;9.07;7.68;;;;;;;15.62;73.35;98147.22;4186590;28;20436;-71
2022/08/18 02:09:24;;;;;;;9.98;7.25;;;;;;;15.74;72.17;98143.09;4186266;28;20040;-71
2022/08/18 02:11:24;;;;;;;8.95;6.75;;;;;;;15.86;72.17;98141.72;4175220;28;20041;-71
2022/08/18 02:13:25;;;;;;;8.13;6.97;;;;;;;15.92;72.67;98151.97;4183948;28;20095;-71
2022/08/18 02:15:26;;;;;;;9.60;7.50;;;;;;;15.99;71.83;98145.50;4186198;28;20044;-71
2022/08/18 02:17:27;;;;;;;7.00;6.25;;;;;;;15.99;71.60;98148.31;4185387;28;20123;-71
2022/08/18 02:19:31;;;;;;;7.93;6.68;;;;;;;16.02;71.53;98153.81;4185421;28;20094;-71
2022/08/18 02:21:31;;;;;;;11.98;6.82;;;;;;;16.05;71.68;98151.38;4186100;28;20047;-71
2022/08/18 02:23:31;;;;;;;8.50;7.10;;;;;;;16.02;71.52;98147.44;4186339;28;20037;-71
2022/08/18 02:25:32;;;;;;;12.73;7.00;;;;;;;16.04;71.45;98158.19;4186971;27;20472;-71
2022/08/18 02:27:34;;;;;;;7.25;6.55;;;;;;;16.12;70.61;98159.66;4186400;28;20048;-71
2022/08/18 02:29:35;;;;;;;12.48;7.38;;;;;;;16.14;71.30;98154.47;4185420;28;20041;-71
2022/08/18 02:31:35;;;;;;;7.93;7.07;;;;;;;16.15;71.42;98153.25;4185433;28;20147;-71
2022/08/18 02:33:36;;;;;;;9.20;6.65;;;;;;;16.10;72.12;98160.06;4185748;28;20801;-71
2022/08/18 02:35:37;;;;;;;9.70;7.70;;;;;;;16.03;72.59;98151.81;4185730;28;20214;-71
2022/08/18 02:37:39;;;;;;;13.38;7.85;;;;;;;15.99;73.00;98145.50;4186211;28;20041;-71
2022/08/18 02:39:40;;;;;;;8.25;7.15;;;;;;;15.93;72.99;98145.19;4185291;28;20040;-71
2022/08/18 02:41:40;;;;;;;7.55;6.68;;;;;;;15.93;72.80;98144.41;4185325;28;20532;-71
2022/08/18 02:43:42;;;;;;;8.57;6.72;;;;;;;15.94;72.74;98143.19;4185656;28;20097;-71
2022/08/18 02:45:42;;;;;;;10.68;6.88;;;;;;;15.96;72.80;98138.75;4184389;28;20417;-71
2022/08/18 02:47:43;;;;;;;9.70;7.00;;;;;;;16.02;72.03;98137.06;4185600;28;20569;-71
2022/08/18 02:49:44;;;;;;;9.32;7.00;;;;;;;16.09;72.99;98147.34;4185138;28;20091;-71
2022/08/18 02:51:45;;;;;;;15.77;8.05;;;;;;;16.18;73.31;98138.44;4185935;28;20039;-71
2022/08/18 02:53:47;;;;;;;9.20;7.57;;;;;;;16.25;72.35;98135.53;4185446;28;20406;-71
2022/08/18 02:55:48;;;;;;;12.25;7.95;;;;;;;16.41;73.13;98137.66;4185041;28;20132;-71
2022/08/18 02:57:49;;;;;;;14.17;8.30;;;;;;;16.45;72.96;98141.94;4185829;28;20681;-71
2022/08/18 02:59:49;;;;;;;9.52;7.63;;;;;;;16.47;72.25;98130.38;4184848;28;20036;-71
2022/08/18 03:01:54;;;;;;;11.20;8.13;;;;;;;16.49;72.49;98139.09;4185781;28;20109;-71
2022/08/18 03:03:56;;;;;;;14.13;7.82;;;;;;;16.51;72.77;98140.25;4185423;28;20033;-71
2022/08/18 03:05:57;;;;;;;;;;;;;;;16.52;72.61;98141.03;4185695;28;20055;-71
2022/08/18 03:07:58;;;;;;;10.95;7.45;;;;;;;16.55;72.54;98143.00;4184136;28;20555;-71
2022/08/18 03:09:58;;;;;;;10.65;7.35;;;;;;;16.60;72.94;98138.91;4185779;28;20044;-71
2022/08/18 03:11:59;;;;;;;10.77;7.07;;;;;;;16.65;72.64;98138.44;4185634;28;20070;-71
2022/08/18 03:14:00;;;;;;;10.80;7.40;;;;;;;16.67;72.69;98136.78;4184729;28;20041;-71
2022/08/18 03:16:00;;;;;;;10.63;7.93;;;;;;;16.68;72.58;98127.19;4185212;28;20305;-71
2022/08/18 03:18:01;;;;;;;9.82;7.25;;;;;;;16.69;72.54;98130.78;4184480;28;20037;-72
2022/08/18 03:20:01;;;;;;;10.57;7.80;;;;;;;16.67;72.56;98125.59;4184527;28;20040;-71
2022/08/18 03:22:03;;;;;;;11.43;7.30;;;;;;;16.69;72.74;98131.56;4184397;28;20081;-71
2022/08/18 03:24:04;;;;;;;10.25;6.78;;;;;;;16.68;72.84;98121.59;4184705;28;20029;-71
2022/08/18 03:26:10;;;;;;;7.90;6.88;;;;;;;16.74;72.86;98127.50;4185103;28;20426;-71
2022/08/18 03:28:11;;;;;;;10.35;7.22;;;;;;;16.81;72.74;98127.38;4183822;28;20081;-72
2022/08/18 03:30:11;;;;;;;11.90;7.22;;;;;;;16.83;72.41;98119.34;4184583;28;20184;-72
2022/08/18 03:32:12;;;;;;;14.75;7.78;;;;;;;16.87;72.82;98119.28;4186114;28;20546;-71
2022/08/18 03:34:12;;;;;;;13.63;7.65;;;;;;;16.86;72.64;98126.88;4178877;28;20063;-71
2022/08/18 03:36:19;;;;;;;11.15;6.97;;;;;;;16.87;72.62;98136.03;4176348;28;20143;-71
2022/08/18 03:38:19;;;;;;;8.35;6.53;;;;;;;16.91;72.45;98129.19;4181950;28;20028;-72
2022/08/18 03:40:19;;;;;;;8.25;6.47;;;;;;;16.90;72.61;98135.19;4181694;28;20056;-71
2022/08/18 03:42:20;;;;;;;7.18;6.30;;;;;;;16.91;72.41;98123.59;4182324;28;20445;-71
2022/08/18 03:44:22;;;;;;;8.90;7.00;;;;;;;16.91;72.46;98129.19;4184177;28;20048;-71
2022/08/18 03:46:23;;;;;;;9.40;6.47;;;;;;;16.95;72.39;98135.47;4182546;28;20063;-71
2022/08/18 03:48:24;;;;;;;8.48;6.75;;;;;;;16.94;72.42;98135.91;4183507;28;20127;-71
2022/08/18 03:50:25;;;;;;;6.97;6.28;;;;;;;16.99;72.27;98135.41;4182269;28;20095;-71
2022/08/18 03:52:25;;;;;;;8.80;6.45;;;;;;;17.00;72.33;98137.78;4182773;28;20052;-71
2022/08/18 03:54:27;;;;;;;7.75;6.70;;;;;;;16.99;72.10;98132.63;4182676;28;20036;-71
2022/08/18 03:56:34;;;;;;;7.20;6.50;;;;;;;17.00;72.08;98134.97;4180111;28;20385;-71
2022/08/18 03:58:35;;;;;;;8.65;6.25;;;;;;;17.02;72.05;98135.34;4178948;28;20091;-72
2022/08/18 04:00:37;;;;;;;7.60;6.80;;;;;;;17.03;72.26;98138.91;4180619;28;20045;-71
2022/08/18 04:02:38;;;;;;;9.10;6.97;;;;;;;17.05;72.12;98136.50;4181605;28;20119;-71
2022/08/18 04:04:39;;;;;;;8.25;6.82;;;;;;;17.09;71.78;98138.00;4182028;28;20041;-72
2022/08/18 04:06:44;;;;;;;6.88;6.18;;;;;;;17.12;71.62;98139.91;4183432;28;20214;-72
2022/08/18 04:08:45;;;;;;;8.73;6.70;;;;;;;17.19;71.34;98143.78;4182334;28;20076;-71
2022/08/18 04:10:45;;;;;;;9.65;7.45;;;;;;;17.19;71.77;98146.59;4183532;28;20048;-71
2022/08/18 04:12:46;;;;;;;9.55;7.40;;;;;;;17.18;71.81;98145.81;4176099;28;20482;-71
2022/08/18 04:14:48;;;;;;;9.63;7.53;;;;;;;17.23;71.76;98144.53;4183985;28;20067;-71
2022/08/18 04:16:49;;;;;;;7.70;6.85;;;;;;;17.25;71.71;98142.88;4182872;28;20105;-72
2022/08/18 04:18:50;;;;;;;16.05;8.23;;;;;;;17.28;71.73;98139.19;4181972;28;20469;-71
2022/08/18 04:20:50;;;;;;;8.93;8.05;;;;;;;17.26;72.12;98133.25;4184857;28;20055;-71
2022/08/18 04:22:50;;;;;;;11.43;8.48;;;;;;;17.27;72.28;98129.22;4183815;28;20083;-71
2022/08/18 04:24:52;;;;;;;11.13;8.38;;;;;;;17.33;72.08;98138.69;4182529;28;20098;-71
2022/08/18 04:26:52;;;;;;;10.65;8.10;;;;;;;17.38;72.01;98140.22;4182720;28;20072;-71
2022/08/18 04:28:53;;;;;;;8.95;8.02;;;;;;;17.42;71.97;98143.72;4184891;28;20087;-71
2022/08/18 04:30:58;;;;;;;10.07;8.93;;;;;;;17.37;71.93;98142.19;4184759;28;20044;-71
2022/08/18 04:33:00;;;;;;;10.27;8.05;;;;;;;17.38;72.05;98137.41;4184029;28;20086;-71
2022/08/18 04:35:00;;;;;;;10.95;7.70;;;;;;;17.35;72.04;98147.44;4185512;28;20047;-71
2022/08/18 04:37:01;;;;;;;9.55;8.15;;;;;;;17.36;71.94;98154.59;4183686;28;20044;-71
2022/08/18 04:39:05;;;;;;;9.25;7.82;;;;;;;17.34;72.38;98153.47;4183100;28;20068;-71
2022/08/18 04:41:07;;;;;;;11.65;8.65;;;;;;;17.31;72.62;98151.53;4184482;28;20094;-71
2022/08/18 04:43:14;;;;;;;11.30;8.20;;;;;;;17.33;72.58;98151.91;4183248;28;20037;-71
2022/08/18 04:45:14;;;;;;;10.60;8.05;;;;;;;17.32;72.78;98153.91;4183201;28;20118;-71
2022/08/18 04:47:14;;;;;;;11.20;9.13;;;;;;;17.38;73.01;98157.78;4185472;28;20128;-72
2022/08/18 04:49:17;;;;;;;11.52;9.38;;;;;;;17.43;72.87;98153.69;4182842;28;20072;-72
2022/08/18 04:51:19;;;;;;;10.73;9.60;;;;;;;17.44;72.94;98155.25;4185159;28;20052;-72
2022/08/18 04:55:45;;;;;;;16.33;10.60;;;;;;;17.55;73.18;98158.63;4187211;28;20048;-72
2022/08/18 04:57:46;;;;;;;13.02;10.32;;;;;;;17.59;72.94;98169.72;4185761;28;20281;-72
2022/08/18 04:59:49;;;;;;;12.98;10.50;;;;;;;17.60;73.37;98162.91;4187554;28;20195;-72
2022/08/18 05:01:49;;;;;;;14.63;11.27;;;;;;;17.61;73.85;98161.69;4186540;28;20156;-72
2022/08/18 05:03:51;;;;;;;15.90;11.98;;;;;;;17.64;74.40;98149.66;4186999;28;20496;-72
2022/08/18 05:05:58;;;;;;;14.05;11.32;;;;;;;17.71;73.95;98151.50;4186503;28;20041;-71
2022/08/18 05:07:59;;;;;;;19.67;13.55;;;;;;;17.75;74.21;98149.44;4186456;28;20036;-71
2022/08/18 05:09:59;;;;;;;19.40;13.75;;;;;;;17.81;74.40;98162.47;4186183;28;20383;-71
2022/08/18 05:12:01;;;;;;;21.35;13.05;;;;;;;17.82;73.90;98166.84;4186186;28;20452;-71
2022/08/18 05:14:05;;;;;;;17.25;12.65;;;;;;;17.83;74.20;98164.84;4177083;28;20071;-71
2022/08/18 05:16:05;;;;;;;17.38;12.95;;;;;;;17.83;74.17;98165.63;4187103;28;20040;-71
2022/08/18 05:18:06;;;;;;;19.42;13.98;;;;;;;17.89;74.40;98163.88;4187491;28;20520;-72
2022/08/18 05:20:07;;;;;;;18.00;13.63;;;;;;;17.91;74.30;98160.66;4185609;28;20343;-72
2022/08/18 05:22:08;;;;;;;17.13;13.55;;;;;;;17.95;74.36;98158.53;4187520;28;20060;-71
2022/08/18 05:24:09;;;;;;;20.35;14.13;;;;;;;17.93;74.23;98170.19;4186355;28;20487;-72
2022/08/18 05:26:12;;;;;;;16.48;13.20;;;;;;;17.99;74.24;98169.66;4185136;28;20515;-72
2022/08/18 05:28:14;;;;;;;17.05;13.18;;;;;;;18.02;73.59;98171.59;4185906;28;20025;-72
2022/08/18 05:30:14;;;;;;;19.37;15.07;;;;;;;18.08;73.78;98173.44;4186966;28;20956;-72
2022/08/18 05:32:15;;;;;;;21.10;13.98;;;;;;;18.07;73.98;98168.28;4185444;28;20090;-72
2022/08/18 05:34:16;;;;;;;18.35;13.65;;;;;;;18.06;74.01;98172.31;4186152;28;20422;-72
2022/08/18 05:36:32;;;;;;;19.17;13.83;;;;;;;18.09;74.10;98175.00;4186921;28;20060;-72
2022/08/18 05:38:52;;;;;;;18.50;14.25;;;;;;;18.11;74.77;98169.75;4184765;28;20072;-72
2022/08/18 05:41:23;;;;;;;23.63;15.90;;;;;;;18.14;74.80;98171.72;4185979;28;20048;-72
2022/08/18 05:43:23;;;;;;;29.58;17.25;;;;;;;18.19;74.89;98175.97;4186209;28;20048;-72
2022/08/18 05:45:25;;;;;;;22.25;17.02;;;;;;;18.24;74.87;98181.06;4187547;28;20140;-72
2022/08/18 05:47:29;;;;;;;26.33;18.95;;;;;;;18.29;75.03;98172.16;4185784;28;20064;-72
2022/08/18 05:49:30;;;;;;;28.73;19.45;;;;;;;18.34;75.24;98171.63;4186614;28;20098;-72
2022/08/18 05:51:57;;;;;;;27.48;20.65;;;;;;;18.39;75.49;98173.91;4185780;28;20036;-72
2022/08/18 05:58:48;;;;;;;25.83;20.70;;;;;;;18.65;76.21;98180.47;4185865;28;20047;-72
2022/08/18 06:00:57;;;;;;;27.02;20.17;;;;;;;18.72;76.07;98174.69;4186160;28;20044;-72
2022/08/18 06:03:21;;;;;;;32.55;22.75;;;;;;;18.79;76.18;98168.91;4185665;28;20044;-72
2022/08/18 06:05:33;;;;;;;32.40;21.85;;;;;;;18.87;75.92;98177.91;4185868;28;20532;-72
2022/08/18 06:07:45;;;;;;;34.83;23.90;;;;;;;18.93;76.33;98181.75;4186505;28;20516;-72
2022/08/18 06:09:52;;;;;;;31.30;23.95;;;;;;;19.03;76.30;98177.88;4185076;28;20045;-72
2022/08/18 06:12:04;;;;;;;29.88;23.17;;;;;;;19.14;75.80;98188.00;4186028;28;20045;-72
2022/08/18 06:14:05;;;;;;;34.65;24.73;;;;;;;19.17;75.92;98175.91;4185570;28;20048;-72
2022/08/18 06:16:24;;;;;;;35.17;25.15;;;;;;;19.22;75.44;98180.97;4186542;28;20039;-72
2022/08/18 06:18:30;;;;;;;32.47;23.58;;;;;;;19.31;75.58;98189.53;4185102;28;20400;-72
2022/08/18 06:20:54;;;;;;;33.65;25.33;;;;;;;19.34;75.34;98185.81;4185448;28;20055;-72
2022/08/18 06:23:17;;;;;;;37.75;26.00;;;;;;;19.39;75.36;98187.31;4185654;28;20110;-72
2022/08/18 06:25:49;;;;;;;32.35;24.42;;;;;;;19.42;75.58;98192.03;4186147;28;20047;-72
2022/08/18 06:27:57;;;;;;;35.67;25.40;;;;;;;19.47;75.58;98200.69;4184951;28;20143;-72
2022/08/18 06:30:03;;;;;;;36.65;26.10;;;;;;;19.50;75.63;98205.41;4185779;28;20384;-72
2022/08/18 06:32:06;;;;;;;38.55;27.58;;;;;;;19.54;75.47;98206.09;4186089;28;20383;-72
2022/08/18 06:34:08;;;;;;;35.60;26.38;;;;;;;19.58;75.42;98215.22;4185619;28;20037;-72
2022/08/18 06:36:48;;;;;;;34.40;25.67;;;;;;;19.57;75.36;98216.47;4186310;28;20078;-72
2022/08/18 06:39:33;;;;;;;36.40;27.83;;;;;;;19.54;75.68;98211.72;4183741;28;20048;-72
2022/08/18 06:41:38;;;;;;;36.08;27.67;;;;;;;19.55;75.97;98204.88;4185913;28;20447;-72
2022/08/18 06:43:49;;;;;;;38.65;28.60;;;;;;;19.56;76.06;98214.06;4186409;28;20529;-72
2022/08/18 06:45:51;;;;;;;37.22;27.80;;;;;;;19.55;76.03;98218.13;4185790;28;20040;-72
2022/08/18 06:48:04;;;;;;;36.95;29.05;;;;;;;19.54;76.35;98213.75;4186467;28;20045;-72
2022/08/18 06:50:07;;;;;;;35.38;27.48;;;;;;;19.57;76.04;98224.09;4182194;28;20036;-72
2022/08/18 06:52:22;;;;;;;38.78;27.73;;;;;;;19.62;76.05;98221.53;4183992;28;20025;-72
2022/08/18 06:54:22;;;;;;;37.78;28.05;;;;;;;19.74;75.63;98234.00;4184886;28;20119;-72
2022/08/18 06:56:30;;;;;;;41.72;28.83;;;;;;;19.78;75.51;98239.53;4185747;28;20409;-72
2022/08/18 06:58:31;;;;;;;42.67;27.33;;;;;;;19.76;75.26;98245.56;4184498;28;20037;-72
2022/08/18 07:00:35;;;;;;;43.25;27.80;;;;;;;19.81;75.52;98247.84;4185477;28;20516;-72
2022/08/18 07:03:07;;;;;;;38.65;27.05;;;;;;;19.84;75.61;98241.31;4186225;28;20530;-72
2022/08/18 07:05:14;;;;;;;39.80;27.70;;;;;;;19.91;75.39;98240.34;4163764;28;20040;-72
2022/08/18 07:07:19;;;;;;;36.17;27.20;;;;;;;19.88;75.38;98246.84;4184848;28;20048;-72
2022/08/18 07:09:22;;;;;;;37.63;28.55;;;;;;;19.85;75.23;98230.88;4185115;28;20059;-72
2022/08/18 07:11:25;;;;;;;39.67;30.08;;;;;;;19.82;75.63;98232.56;4184730;28;20049;-72
2022/08/18 07:13:27;;;;;;;37.92;29.20;;;;;;;19.78;75.96;98229.09;4185208;28;20062;-72
2022/08/18 07:15:28;;;;;;;37.00;27.98;;;;;;;19.79;76.05;98235.50;4185311;28;20052;-72
2022/08/18 07:17:34;;;;;;;34.47;25.77;;;;;;;19.80;76.17;98245.50;4184459;28;20043;-72
2022/08/18 07:19:35;;;;;;;34.25;24.73;;;;;;;19.77;75.90;98244.34;4184358;28;20051;-72
2022/08/18 07:21:39;;;;;;;31.15;23.80;;;;;;;19.78;75.95;98251.56;4185813;28;20048;-72
2022/08/18 07:23:40;;;;;;;36.15;27.75;;;;;;;19.76;75.95;98253.22;4184831;28;20058;-71
2022/08/18 07:25:44;;;;;;;38.03;28.85;;;;;;;19.76;76.09;98247.59;4185072;28;20036;-72
2022/08/18 07:27:50;;;;;;;35.35;27.95;;;;;;;19.75;76.18;98251.63;4185311;28;20240;-72
2022/08/18 07:30:11;;;;;;;34.42;27.40;;;;;;;19.77;76.31;98260.38;4184752;28;20575;-72
2022/08/18 07:32:20;;;;;;;36.78;26.17;;;;;;;19.73;76.32;98251.31;4184572;28;20056;-72
2022/08/18 07:34:36;;;;;;;41.42;29.55;;;;;;;19.73;76.69;98254.09;4185472;28;20462;-72
2022/08/18 07:36:48;;;;;;;37.15;28.50;;;;;;;19.69;76.70;98259.81;4184613;28;20036;-72
2022/08/18 07:38:55;;;;;;;33.40;26.77;;;;;;;19.68;76.72;98249.03;4183942;28;20035;-72
2022/08/18 07:41:13;;;;;;;32.33;25.50;;;;;;;19.67;76.60;98259.47;4184991;28;20286;-72
2022/08/18 07:43:24;;;;;;;42.15;29.42;;;;;;;19.69;76.41;98259.03;4185108;28;20929;-72
2022/08/18 07:45:41;;;;;;;40.67;28.83;;;;;;;19.71;76.25;98262.19;4184218;28;20037;-72
2022/08/18 07:47:52;;;;;;;30.10;24.75;;;;;;;19.70;75.73;98272.63;4184035;28;20151;-72
2022/08/18 07:49:57;;;;;;;38.97;28.70;;;;;;;19.72;76.08;98272.19;4184697;28;20036;-72
2022/08/18 07:52:26;;;;;;;41.50;28.67;;;;;;;19.71;76.27;98273.41;4185471;28;20112;-72
2022/08/18 07:54:38;;;;;;;35.42;28.45;;;;;;;19.72;76.24;98275.00;4183024;28;20469;-72
2022/08/18 07:56:47;;;;;;;39.50;30.13;;;;;;;19.70;76.59;98269.84;4185730;28;20159;-72
2022/08/18 07:59:17;;;;;;;43.67;28.67;;;;;;;19.70;76.48;98263.44;4183997;28;20312;-72
2022/08/18 08:01:25;;;;;;;43.13;29.63;;;;;;;19.71;76.73;98256.59;4176195;28;20041;-72
2022/08/18 08:03:54;;;;;;;49.22;31.77;;;;;;;19.70;76.82;98246.59;4184299;28;20384;-72
2022/08/18 08:06:22;;;;;;;40.38;29.70;;;;;;;19.72;76.70;98250.53;4184845;28;20123;-72
2022/08/18 08:08:40;;;;;;;41.85;29.08;;;;;;;19.73;77.52;98240.88;4184012;28;20401;-72
2022/08/18 08:10:51;;;;;;;47.63;31.27;;;;;;;19.78;77.49;98247.97;4185137;28;20072;-72
2022/08/18 08:13:07;;;;;;;40.33;30.40;;;;;;;19.81;76.89;98249.88;4184233;28;20079;-72
2022/08/18 08:15:12;;;;;;;35.33;27.13;;;;;;;19.88;76.25;98264.47;4185016;28;20131;-72
2022/08/18 08:17:53;;;;;;;38.33;27.30;;;;;;;19.98;75.41;98271.00;4184043;28;20328;-72
2022/08/18 08:20:08;;;;;;;41.83;27.23;;;;;;;20.09;75.06;98277.09;4183285;28;20383;-72
2022/08/18 08:22:14;;;;;;;39.03;26.90;;;;;;;20.22;74.29;98281.94;4183664;28;20339;-72
2022/08/18 08:25:05;;;;;;;34.72;26.98;;;;;;;20.33;73.89;98290.81;4184389;28;20029;-72
2022/08/18 08:28:08;;;;;;;32.80;24.00;;;;;;;20.45;72.46;98290.09;4181705;28;20048;-72
2022/08/18 08:30:13;;;;;;;31.85;24.95;;;;;;;20.50;71.81;98295.13;4149496;28;20510;-73
2022/08/18 08:32:21;;;;;;;28.88;23.02;;;;;;;20.57;71.96;98291.31;4179903;28;20329;-72
2022/08/18 08:34:42;;;;;;;26.05;20.65;;;;;;;20.65;72.18;98290.63;4185936;28;20044;-72
2022/08/18 08:36:45;;;;;;;25.70;20.63;;;;;;;20.74;71.29;98298.41;4187146;28;20090;-72
2022/08/18 08:38:52;;;;;;;27.83;22.58;;;;;;;20.78;68.80;98313.13;4187177;28;20040;-72
2022/08/18 08:41:04;;;;;;;29.02;22.08;;;;;;;20.83;71.17;98306.16;4187841;28;20040;-72
2022/08/18 08:43:15;;;;;;;26.33;21.38;;;;;;;20.90;70.89;98303.09;4187121;28;20184;-72
2022/08/18 08:45:38;;;;;;;26.60;21.50;;;;;;;20.91;69.87;98301.88;4187936;28;20457;-72
2022/08/18 08:48:19;;;;;;;29.40;21.85;;;;;;;20.92;70.33;98300.63;4186251;28;20437;-72
2022/08/18 08:50:25;;;;;;;23.80;19.23;;;;;;;20.89;71.37;98291.06;4180163;28;20044;-72
2022/08/18 08:52:37;;;;;;;23.85;19.67;;;;;;;20.89;71.03;98293.09;4187557;28;20384;-72
2022/08/18 08:54:48;;;;;;;;;;;;;;;20.88;72.38;98283.88;4187922;28;20294;-72
2022/08/18 08:56:51;;;;;;;30.10;23.08;;;;;;;20.87;72.96;98279.50;4186818;28;20275;-72
2022/08/18 08:58:57;;;;;;;24.40;20.48;;;;;;;20.85;73.32;98272.72;4187283;28;20170;-72
2022/08/18 09:00:58;;;;;;;26.10;21.05;;;;;;;20.81;73.72;98272.88;4186864;28;20052;-72
2022/08/18 09:03:25;;;;;;;24.52;20.70;;;;;;;20.77;73.39;98275.03;4182561;28;20046;-72
2022/08/18 09:05:33;;;;;;;24.63;20.42;;;;;;;20.73;73.82;98275.13;4178792;28;20466;-72
2022/08/18 09:08:03;;;;;;;25.50;20.92;;;;;;;20.70;73.79;98278.06;4187340;28;20440;-72
2022/08/18 09:10:43;;;;;;;26.02;20.30;;;;;;;20.66;74.14;98286.59;4156987;28;20040;-72
2022/08/18 09:13:10;;;;;;;30.70;23.17;;;;;;;20.61;74.94;98292.00;4187058;28;20362;-72
2022/08/18 09:15:14;;;;;;;25.52;20.33;;;;;;;20.57;75.78;98283.69;4185957;28;20052;-72
2022/08/18 09:17:14;;;;;;;37.78;24.38;;;;;;;20.54;77.84;98290.22;4186647;28;20098;-72
2022/08/18 09:19:20;;;;;;;30.92;25.48;;;;;;;20.48;78.52;98289.97;4184621;28;20048;-72
2022/08/18 09:21:23;;;;;;;47.95;30.50;;;;;;;20.42;79.69;98290.94;4187635;28;20079;-72
2022/08/18 09:23:38;;;;;;;32.05;24.05;;;;;;;20.39;80.37;98289.03;4185758;28;20049;-72
2022/08/18 09:25:38;;;;;;;42.40;27.08;;;;;;;20.31;82.40;98296.91;4186371;28;20068;-72
2022/08/18 09:27:45;;;;;;;38.85;26.77;;;;;;;20.26;83.73;98300.25;4186928;28;20594;-72
2022/08/18 09:29:56;;;;;;;35.22;24.10;;;;;;;20.19;84.34;98301.28;4186191;28;20253;-72
2022/08/18 09:32:18;;;;;;;40.78;25.45;;;;;;;20.12;83.64;98307.09;4187191;28;20372;-72
2022/08/18 09:34:37;;;;;;;34.25;26.17;;;;;;;20.04;86.10;98293.72;4187299;28;20515;-72
2022/08/18 09:36:59;;;;;;;37.70;25.90;;;;;;;20.06;86.21;98291.25;4188180;28;20036;-72
2022/08/18 09:41:59;;;;;;;27.95;22.33;;;;;;;19.89;85.03;98282.09;4185637;28;20126;-72
2022/08/18 09:44:11;;;;;;;;;;;;;;;19.76;85.54;98284.88;4185395;28;20105;-72
2022/08/18 09:46:12;;;;;;;30.08;22.92;;;;;;;19.62;85.65;98288.88;4185699;28;19924;-72
2022/08/18 09:48:13;;;;;;;27.63;22.42;;;;;;;19.50;86.46;98285.97;4185031;28;20377;-72
2022/08/18 09:50:16;;;;;;;32.17;22.92;;;;;;;19.38;87.90;98292.34;4186587;28;20043;-72
2022/08/18 09:52:19;;;;;;;27.02;23.27;;;;;;;19.28;89.01;98296.97;4186379;28;20380;-72
2022/08/18 09:54:23;;;;;;;30.58;24.08;;;;;;;19.22;90.90;98304.38;4186953;28;20610;-72
2022/08/18 09:57:02;;;;;;;32.97;24.50;;;;;;;19.26;91.13;98302.25;4186008;28;20083;-72
2022/08/18 09:59:04;;;;;;;35.33;25.90;;;;;;;19.19;93.06;98296.81;4166794;28;20297;-72
2022/08/18 10:01:33;;;;;;;35.67;26.92;;;;;;;19.16;95.01;98300.53;4167822;28;20041;-72
2022/08/18 10:03:33;;;;;;;35.90;27.38;;;;;;;19.09;95.63;98288.25;4162858;28;20091;-72
2022/08/18 10:05:34;;;;;;;33.92;25.27;;;;;;;19.05;95.85;98290.38;4184853;28;20049;-72